aviador You're here:

K1YT Decoded Metar

in
Report Time2018-05-28 08:58:00
UTC Time2018-05-28 09:42:37
Flight Rules vfr VFR
Wind080° at 05 kt
W.Rank080° ranks 4
Current wind is below 080° avg. (6.7)
Visibility9999 m
Phenomena:N/A
Clouds:N/A
Expected CloudBase > 2,800 ft AGL from Temp-Dew spread
CeilingNone
Temp13°C
Dew Point06°C (63% RH)
AAT10.3°C
QNH1018 hPa
Raw Report
METAR K1YT 280858Z AUTO 08005KT 10SM CLR 13/06 A3005 RMK AO2 SLPNO
T01340058 58002 $=

Extra information for K1YT:More info

Social comments